createdAt,value
2023-04-22T00:00:09.089Z,15.59
2023-04-22T00:02:38.732Z,15.92
2023-04-22T00:05:07.198Z,15.59
2023-04-22T00:07:36.138Z,15.56
2023-04-22T00:10:04.161Z,15.63
2023-04-22T00:12:31.997Z,15.17
2023-04-22T00:14:59.466Z,15.55
2023-04-22T00:17:26.897Z,15.45
2023-04-22T00:19:54.490Z,16.02
2023-04-22T00:22:21.923Z,15.89
2023-04-22T00:24:50.628Z,15.87
2023-04-22T00:27:18.614Z,15.61
2023-04-22T00:29:45.998Z,15.61
2023-04-22T00:32:13.430Z,15.76
2023-04-22T00:34:40.814Z,15.89
2023-04-22T00:37:08.299Z,15.39
2023-04-22T00:39:39.240Z,15.39
2023-04-22T00:42:08.571Z,15.59
2023-04-22T00:44:37.239Z,15.82
2023-04-22T00:47:06.553Z,15.18
2023-04-22T00:49:36.077Z,15.38
2023-04-22T00:52:03.560Z,15.68
2023-04-22T00:54:32.041Z,15.76
2023-04-22T00:56:59.833Z,15.82
2023-04-22T00:59:28.745Z,15.47
2023-04-22T01:01:57.136Z,15.31
2023-04-22T01:04:25.668Z,15.46
2023-04-22T01:06:53.927Z,15.26
2023-04-22T01:09:21.664Z,15.49
2023-04-22T01:11:49.080Z,15.55
2023-04-22T01:14:17.040Z,15.48
2023-04-22T01:16:46.242Z,15.68
2023-04-22T01:19:13.791Z,15.34
2023-04-22T01:21:41.673Z,15.61
2023-04-22T01:24:10.595Z,15.57
2023-04-22T01:26:38.659Z,15.18
2023-04-22T01:29:06.624Z,15.29
2023-04-22T01:31:34.654Z,15.50
2023-04-22T01:34:02.516Z,15.25
2023-04-22T01:36:30.109Z,15.41
2023-04-22T01:38:57.678Z,15.04
2023-04-22T01:41:26.775Z,14.72
2023-04-22T01:43:54.691Z,14.68
2023-04-22T01:46:22.152Z,15.20
2023-04-22T01:48:51.641Z,15.11
2023-04-22T01:51:20.355Z,15.09
2023-04-22T01:53:48.251Z,14.91
2023-04-22T01:56:15.836Z,15.27
2023-04-22T01:58:45.052Z,15.16
2023-04-22T02:01:13.734Z,14.62
2023-04-22T02:03:41.515Z,14.75
2023-04-22T02:06:09.103Z,14.87
2023-04-22T02:08:36.537Z,14.49
2023-04-22T02:11:03.985Z,14.90
2023-04-22T02:13:36.516Z,14.99
2023-04-22T02:16:06.342Z,15.24
2023-04-22T02:18:34.111Z,15.10
2023-04-22T02:21:01.686Z,14.75
2023-04-22T02:23:29.751Z,14.86
2023-04-22T02:25:57.343Z,15.11
2023-04-22T02:28:24.739Z,15.00
2023-04-22T02:30:52.134Z,14.58
2023-04-22T02:33:20.885Z,14.89
2023-04-22T02:35:48.611Z,14.23
2023-04-22T02:38:16.293Z,14.56
2023-04-22T02:40:43.736Z,14.87
2023-04-22T02:43:11.146Z,14.29
2023-04-22T02:45:38.675Z,14.34
2023-04-22T02:48:06.265Z,14.81
2023-04-22T02:50:35.001Z,15.04
2023-04-22T02:53:02.476Z,14.69
2023-04-22T02:55:30.404Z,14.17
2023-04-22T02:57:57.836Z,14.71
2023-04-22T03:00:25.479Z,14.91
2023-04-22T03:02:53.524Z,14.78
2023-04-22T03:05:21.137Z,14.71
2023-04-22T03:07:49.933Z,14.92
2023-04-22T03:10:17.387Z,14.55
2023-04-22T03:12:44.830Z,14.72
2023-04-22T03:15:12.989Z,14.19
2023-04-22T03:17:40.476Z,14.42
2023-04-22T03:20:08.785Z,14.44
2023-04-22T03:22:36.249Z,14.58
2023-04-22T03:25:06.312Z,14.33
2023-04-22T03:27:33.790Z,14.64
2023-04-22T03:30:01.237Z,14.76
2023-04-22T03:32:28.767Z,14.39
2023-04-22T03:34:56.195Z,14.59
2023-04-22T03:37:23.773Z,14.59
2023-04-22T03:39:51.166Z,14.48
2023-04-22T03:42:19.953Z,14.16
2023-04-22T03:44:47.353Z,14.25
2023-04-22T03:47:14.906Z,13.75
2023-04-22T03:49:43.964Z,14.05
2023-04-22T03:52:11.388Z,14.50
2023-04-22T03:54:38.807Z,14.39
2023-04-22T03:57:06.293Z,14.11
2023-04-22T03:59:35.013Z,13.55
2023-04-22T04:02:02.642Z,14.29
2023-04-22T04:04:30.650Z,14.38
2023-04-22T04:06:58.315Z,14.56
2023-04-22T04:09:25.782Z,14.40
2023-04-22T04:11:53.210Z,13.84
2023-04-22T04:14:20.672Z,14.10
2023-04-22T04:16:49.515Z,14.25
2023-04-22T04:19:16.972Z,14.58
2023-04-22T04:21:44.378Z,14.70
2023-04-22T04:24:11.795Z,14.50
2023-04-22T04:26:39.307Z,13.87
2023-04-22T04:29:06.810Z,14.18
2023-04-22T04:31:35.304Z,14.55
2023-04-22T04:34:04.282Z,14.97
2023-04-22T04:36:32.785Z,15.10
2023-04-22T04:39:00.220Z,14.53
2023-04-22T04:41:28.186Z,14.96
2023-04-22T04:43:56.285Z,15.16
2023-04-22T04:46:23.826Z,15.10
2023-04-22T04:48:51.731Z,14.15
2023-04-22T04:51:20.765Z,14.84
2023-04-22T04:53:48.182Z,14.80
2023-04-22T04:56:16.790Z,14.77
2023-04-22T04:58:44.207Z,15.24
2023-04-22T05:01:11.688Z,15.14
2023-04-22T05:03:39.362Z,15.42
2023-04-22T05:06:08.239Z,15.53
2023-04-22T05:08:36.958Z,16.09
2023-04-22T05:11:04.360Z,15.79
2023-04-22T05:13:31.758Z,15.88
2023-04-22T05:15:59.789Z,16.08
2023-04-22T05:18:27.362Z,16.34
2023-04-22T05:20:54.764Z,16.58
2023-04-22T05:23:22.168Z,16.27
2023-04-22T05:25:53.271Z,16.33
2023-04-22T05:28:20.922Z,16.91
2023-04-22T05:30:48.310Z,17.47
2023-04-22T05:33:15.853Z,17.02
2023-04-22T05:35:43.389Z,18.73
2023-04-22T05:38:11.041Z,21.29
2023-04-22T05:40:39.382Z,20.80
2023-04-22T05:43:08.119Z,19.44
2023-04-22T05:45:35.806Z,18.98
2023-04-22T05:48:03.453Z,20.84
2023-04-22T05:50:30.978Z,21.81
2023-04-22T05:52:58.388Z,21.92
2023-04-22T05:55:25.826Z,22.40
2023-04-22T05:57:53.242Z,22.66
2023-04-22T06:00:22.036Z,22.66
2023-04-22T06:02:49.686Z,22.45
2023-04-22T06:05:17.443Z,21.38
2023-04-22T06:07:45.381Z,22.14
2023-04-22T06:10:12.839Z,22.03
2023-04-22T06:12:40.741Z,23.45
2023-04-22T06:15:09.001Z,23.60
2023-04-22T06:17:37.878Z,20.98
2023-04-22T06:20:06.590Z,19.97
2023-04-22T06:22:34.023Z,19.61
2023-04-22T06:25:01.471Z,19.15
2023-04-22T06:27:28.892Z,18.90
2023-04-22T06:29:56.274Z,18.55
2023-04-22T06:32:23.755Z,17.92
2023-04-22T06:34:52.464Z,16.32
2023-04-22T06:37:19.878Z,16.28
2023-04-22T06:39:47.334Z,17.01
2023-04-22T06:42:14.752Z,17.40
2023-04-22T06:44:42.438Z,17.54
2023-04-22T06:47:09.853Z,16.52
2023-04-22T06:49:39.608Z,16.38
2023-04-22T06:52:08.738Z,16.60
2023-04-22T06:54:36.156Z,16.80
2023-04-22T06:57:03.639Z,16.38
2023-04-22T06:59:31.098Z,16.48
2023-04-22T07:01:58.524Z,16.29
2023-04-22T07:04:27.621Z,17.17
2023-04-22T07:06:55.279Z,16.90
2023-04-22T07:09:24.007Z,17.58
2023-04-22T07:11:51.428Z,17.56
2023-04-22T07:14:18.986Z,17.33
2023-04-22T07:16:47.435Z,17.88
2023-04-22T07:19:14.949Z,17.73
2023-04-22T07:21:42.368Z,17.25
2023-04-22T07:24:12.112Z,16.43
2023-04-22T07:26:42.084Z,17.53
2023-04-22T07:29:09.713Z,17.61
2023-04-22T07:31:37.410Z,17.18
2023-04-22T07:34:04.900Z,17.46
2023-04-22T07:36:33.168Z,17.61
2023-04-22T07:39:00.722Z,17.47
2023-04-22T07:41:28.160Z,17.63
2023-04-22T07:43:56.866Z,18.25
2023-04-22T07:46:24.555Z,18.40
2023-04-22T07:48:52.075Z,19.09
2023-04-22T07:51:19.513Z,17.98
2023-04-22T07:53:46.942Z,18.04
2023-04-22T07:56:14.698Z,17.80
2023-04-22T07:58:42.119Z,18.28
2023-04-22T08:01:11.258Z,18.50
2023-04-22T08:03:38.887Z,19.17
2023-04-22T08:06:07.094Z,19.47
2023-04-22T08:08:34.493Z,19.75
2023-04-22T08:11:01.927Z,19.92
2023-04-22T08:13:29.368Z,18.71
2023-04-22T08:15:56.841Z,18.82
2023-04-22T08:18:25.648Z,19.18
2023-04-22T08:20:54.224Z,19.41
2023-04-22T08:23:21.683Z,19.78
2023-04-22T08:25:50.019Z,20.17
2023-04-22T08:28:17.583Z,19.93
2023-04-22T08:30:45.035Z,19.47
2023-04-22T08:33:12.806Z,19.64
2023-04-22T08:35:41.913Z,19.38
2023-04-22T08:38:09.346Z,19.23
2023-04-22T08:40:36.867Z,19.56
2023-04-22T08:43:05.262Z,19.85
2023-04-22T08:45:33.027Z,19.13
2023-04-22T08:48:01.531Z,19.62
2023-04-22T08:50:30.008Z,20.52
2023-04-22T08:52:58.746Z,20.46
2023-04-22T08:55:27.496Z,20.69
2023-04-22T08:57:55.497Z,20.87
2023-04-22T09:00:22.948Z,20.73
2023-04-22T09:02:51.629Z,21.01
2023-04-22T09:05:20.172Z,21.12
2023-04-22T09:07:47.816Z,20.78
2023-04-22T09:10:16.621Z,21.35
2023-04-22T09:12:44.024Z,21.17
2023-04-22T09:15:12.754Z,20.92
2023-04-22T09:17:41.319Z,20.80
2023-04-22T09:20:09.780Z,20.27
2023-04-22T09:22:41.668Z,20.38
2023-04-22T09:25:18.316Z,20.89
2023-04-22T09:27:49.716Z,20.71
2023-04-22T09:30:19.481Z,20.59
2023-04-22T09:32:54.674Z,21.13
2023-04-22T09:35:31.689Z,20.62
2023-04-22T09:38:00.647Z,21.04
2023-04-22T09:40:30.927Z,20.70
2023-04-22T09:43:01.612Z,20.58
2023-04-22T09:45:31.037Z,21.55
2023-04-22T09:48:04.616Z,21.48
2023-04-22T09:50:32.023Z,21.86
2023-04-22T09:53:01.919Z,21.22
2023-04-22T09:55:33.995Z,21.71
2023-04-22T09:58:07.062Z,21.93
2023-04-22T10:00:41.122Z,21.90
2023-04-22T10:03:10.705Z,22.14
2023-04-22T10:05:38.900Z,22.17
2023-04-22T10:08:07.715Z,20.73
2023-04-22T10:10:37.639Z,20.36
2023-04-22T10:13:06.688Z,21.39
2023-04-22T10:15:36.684Z,21.01
2023-04-22T10:18:07.673Z,21.04
2023-04-22T10:20:38.678Z,21.20
2023-04-22T10:23:07.054Z,21.81
2023-04-22T10:25:35.758Z,21.89
2023-04-22T10:28:05.236Z,21.72
2023-04-22T10:30:34.498Z,22.18
2023-04-22T10:33:36.669Z,21.40
2023-04-22T10:36:09.053Z,21.69
2023-04-22T10:38:36.811Z,21.65
2023-04-22T10:41:05.895Z,21.59
2023-04-22T10:43:42.301Z,22.01
2023-04-22T10:46:54.572Z,21.66
2023-04-22T10:49:23.450Z,21.63
2023-04-22T10:51:52.410Z,21.26
2023-04-22T10:54:58.405Z,21.68
2023-04-22T10:57:37.353Z,21.99
2023-04-22T11:00:42.159Z,22.55
2023-04-22T11:03:25.617Z,22.87
2023-04-22T11:06:18.605Z,22.02
2023-04-22T11:08:47.409Z,21.43
2023-04-22T11:11:14.864Z,22.16
2023-04-22T11:13:43.686Z,22.20
2023-04-22T11:16:11.705Z,21.87
2023-04-22T11:18:39.678Z,22.18
2023-04-22T11:21:08.794Z,22.19
2023-04-22T11:23:37.570Z,22.37
2023-04-22T11:26:07.422Z,22.39
2023-04-22T11:28:34.912Z,22.04
2023-04-22T11:31:03.592Z,21.44
2023-04-22T11:33:31.103Z,21.86
2023-04-22T11:35:58.780Z,21.53
2023-04-22T11:38:26.226Z,22.36
2023-04-22T11:40:57.730Z,22.82
2023-04-22T11:43:25.535Z,22.74
2023-04-22T11:45:53.119Z,23.02
2023-04-22T11:48:20.552Z,22.52
2023-04-22T11:50:48.507Z,21.93
2023-04-22T11:53:17.892Z,22.46
2023-04-22T11:55:47.050Z,22.35
2023-04-22T11:58:17.487Z,21.74
2023-04-22T12:00:47.824Z,22.47
2023-04-22T12:03:17.375Z,22.28
2023-04-22T12:05:47.059Z,22.22
2023-04-22T12:08:17.198Z,21.87
2023-04-22T12:10:46.544Z,22.36
2023-04-22T12:13:22.367Z,22.22
2023-04-22T12:15:54.362Z,21.63
2023-04-22T12:18:29.593Z,22.18
2023-04-22T12:21:00.483Z,22.12
2023-04-22T12:23:28.431Z,22.40
2023-04-22T12:25:55.858Z,22.44
2023-04-22T12:28:24.611Z,22.29
2023-04-22T12:30:52.154Z,22.99
2023-04-22T12:33:19.592Z,22.77
2023-04-22T12:35:48.794Z,23.27
2023-04-22T12:38:16.356Z,22.68
2023-04-22T12:40:43.766Z,22.12
2023-04-22T12:43:11.271Z,22.34
2023-04-22T12:45:40.010Z,22.91
2023-04-22T12:48:07.414Z,22.94
2023-04-22T12:50:34.854Z,22.59
2023-04-22T12:53:02.246Z,22.32
2023-04-22T12:55:30.542Z,22.64
2023-04-22T12:57:58.067Z,22.68
2023-04-22T13:00:25.971Z,22.76
2023-04-22T13:02:54.783Z,22.16
2023-04-22T13:05:22.384Z,22.26
2023-04-22T13:07:56.408Z,22.77
2023-04-22T13:10:31.313Z,22.32
2023-04-22T13:13:06.370Z,22.85
2023-04-22T13:15:44.021Z,22.76
2023-04-22T13:18:12.849Z,23.25
2023-04-22T13:20:41.772Z,22.88
2023-04-22T13:23:09.660Z,22.82
2023-04-22T13:25:37.224Z,22.96
2023-04-22T13:28:04.671Z,23.25
2023-04-22T13:30:32.144Z,23.33
2023-04-22T13:32:59.551Z,23.26
2023-04-22T13:35:28.450Z,22.41
2023-04-22T13:37:56.101Z,22.49
2023-04-22T13:40:23.494Z,22.70
2023-04-22T13:42:51.010Z,22.88
2023-04-22T13:45:18.693Z,22.39
2023-04-22T13:47:46.132Z,23.07
2023-04-22T13:50:13.556Z,23.07
2023-04-22T13:52:42.618Z,22.62
2023-04-22T13:55:10.699Z,22.87
2023-04-22T13:57:38.170Z,23.04
2023-04-22T14:00:06.748Z,23.08
2023-04-22T14:02:34.308Z,23.59
2023-04-22T14:05:02.228Z,23.62
2023-04-22T14:07:29.639Z,22.88
2023-04-22T14:09:58.377Z,23.09
2023-04-22T14:12:25.907Z,23.41
2023-04-22T14:14:53.313Z,22.94
2023-04-22T14:17:22.497Z,22.78
2023-04-22T14:19:49.900Z,23.11
2023-04-22T14:22:17.308Z,23.31
2023-04-22T14:24:44.737Z,23.15
2023-04-22T14:27:13.440Z,23.36
2023-04-22T14:29:41.358Z,23.77
2023-04-22T14:32:09.172Z,22.99
2023-04-22T14:34:36.571Z,23.26
2023-04-22T14:37:04.010Z,23.47
2023-04-22T14:39:31.430Z,23.72
2023-04-22T14:41:58.856Z,23.24
2023-04-22T14:44:27.832Z,23.25
2023-04-22T14:46:55.254Z,22.47
2023-04-22T14:49:22.756Z,22.76
2023-04-22T14:51:50.378Z,22.70
2023-04-22T14:54:17.790Z,22.81
2023-04-22T14:56:45.191Z,23.03
2023-04-22T14:59:12.606Z,22.82
2023-04-22T15:01:43.039Z,22.91
2023-04-22T15:04:12.693Z,23.25
2023-04-22T15:06:40.308Z,23.39
2023-04-22T15:09:07.998Z,23.58
2023-04-22T15:11:35.463Z,23.49
2023-04-22T15:14:02.930Z,23.89
2023-04-22T15:16:31.052Z,23.59
2023-04-22T15:19:00.540Z,23.41
2023-04-22T15:21:27.994Z,23.29
2023-04-22T15:23:55.449Z,23.46
2023-04-22T15:26:22.890Z,23.11
2023-04-22T15:28:51.482Z,23.29
2023-04-22T15:31:19.553Z,23.15
2023-04-22T15:33:47.032Z,23.29
2023-04-22T15:36:18.114Z,23.61
2023-04-22T15:38:45.555Z,23.57
2023-04-22T15:41:12.990Z,23.22
2023-04-22T15:43:40.604Z,22.99
2023-04-22T15:46:08.475Z,23.02
2023-04-22T15:48:35.913Z,23.19
2023-04-22T15:51:03.356Z,23.41
2023-04-22T15:53:32.101Z,23.43
2023-04-22T15:55:59.526Z,22.99
2023-04-22T15:58:28.904Z,22.80
2023-04-22T16:01:07.673Z,23.08
2023-04-22T16:03:45.415Z,22.95
2023-04-22T16:06:13.141Z,22.90
2023-04-22T16:08:41.865Z,22.95
2023-04-22T16:11:09.426Z,23.20
2023-04-22T16:13:38.784Z,23.02
2023-04-22T16:16:06.638Z,22.59
2023-04-22T16:18:34.193Z,23.00
2023-04-22T16:21:02.222Z,22.85
2023-04-22T16:23:29.689Z,22.88
2023-04-22T16:25:58.740Z,23.02
2023-04-22T16:28:26.178Z,23.29
2023-04-22T16:30:53.622Z,23.14
2023-04-22T16:33:21.045Z,23.19
2023-04-22T16:35:48.449Z,23.15
2023-04-22T16:38:16.566Z,22.71
2023-04-22T16:40:44.003Z,22.50
2023-04-22T16:43:12.965Z,22.79
2023-04-22T16:45:40.503Z,22.93
2023-04-22T16:48:07.941Z,22.86
2023-04-22T16:50:35.510Z,23.06
2023-04-22T16:53:02.902Z,22.64
2023-04-22T16:55:30.301Z,22.98
2023-04-22T16:58:00.860Z,22.52
2023-04-22T17:00:30.512Z,22.57
2023-04-22T17:02:58.132Z,22.62
2023-04-22T17:05:25.644Z,22.53
2023-04-22T17:07:53.048Z,22.51
2023-04-22T17:10:20.652Z,22.61
2023-04-22T17:12:48.084Z,22.74
2023-04-22T17:15:15.584Z,22.38
2023-04-22T17:17:44.358Z,22.63
2023-04-22T17:20:12.316Z,22.41
2023-04-22T17:22:39.762Z,22.21
2023-04-22T17:25:08.567Z,22.31
2023-04-22T17:27:35.982Z,22.10
2023-04-22T17:30:03.446Z,22.05
2023-04-22T17:32:30.967Z,22.19
2023-04-22T17:34:59.780Z,21.77
2023-04-22T17:37:27.222Z,21.78
2023-04-22T17:39:56.238Z,21.72
2023-04-22T17:42:25.288Z,21.97
2023-04-22T17:45:00.040Z,22.06
2023-04-22T17:47:27.609Z,21.92
2023-04-22T17:49:55.096Z,21.94
2023-04-22T17:52:24.233Z,21.90
2023-04-22T17:54:52.084Z,21.83
2023-04-22T17:57:19.511Z,21.53
2023-04-22T17:59:46.943Z,21.74
2023-04-22T18:02:15.162Z,21.52
2023-04-22T18:04:42.755Z,21.51
2023-04-22T18:07:10.216Z,21.51
2023-04-22T18:09:39.328Z,21.61
2023-04-22T18:12:07.026Z,21.63
2023-04-22T18:14:34.489Z,21.40
2023-04-22T18:17:02.735Z,21.45
2023-04-22T18:19:30.252Z,21.28
2023-04-22T18:22:00.404Z,20.98
2023-04-22T18:24:28.218Z,21.15
2023-04-22T18:26:56.985Z,20.98
2023-04-22T18:29:24.412Z,21.17
2023-04-22T18:31:51.886Z,21.27
2023-04-22T18:34:19.509Z,21.06
2023-04-22T18:36:47.037Z,21.18
2023-04-22T18:39:14.424Z,21.00
2023-04-22T18:41:42.838Z,20.89
2023-04-22T18:44:11.777Z,20.93
2023-04-22T18:46:39.200Z,20.74
2023-04-22T18:49:07.408Z,20.65
2023-04-22T18:51:34.988Z,20.55
2023-04-22T18:54:02.734Z,20.40
2023-04-22T18:56:32.784Z,20.54
2023-04-22T18:59:00.343Z,20.80
2023-04-22T19:01:29.327Z,20.30
2023-04-22T19:03:57.012Z,20.69
2023-04-22T19:06:24.526Z,20.70
2023-04-22T19:08:52.940Z,20.52
2023-04-22T19:11:20.441Z,20.80
2023-04-22T19:13:47.973Z,20.69
2023-04-22T19:16:15.436Z,20.48
2023-04-22T19:18:44.736Z,20.50
2023-04-22T19:21:12.167Z,20.63
2023-04-22T19:23:40.698Z,20.73
2023-04-22T19:26:09.533Z,20.61
2023-04-22T19:28:37.023Z,20.64
2023-04-22T19:31:05.086Z,20.71
2023-04-22T19:33:32.957Z,20.65
2023-04-22T19:36:02.825Z,20.49
2023-04-22T19:38:30.656Z,20.51
2023-04-22T19:40:58.146Z,20.45
2023-04-22T19:43:26.305Z,20.36
2023-04-22T19:45:54.149Z,20.41
2023-04-22T19:48:22.193Z,20.40
2023-04-22T19:50:49.742Z,20.15
2023-04-22T19:53:19.868Z,20.15
2023-04-22T19:55:47.506Z,20.20
2023-04-22T19:58:15.693Z,20.12
2023-04-22T20:00:43.652Z,20.08
2023-04-22T20:03:14.368Z,20.01
2023-04-22T20:05:43.958Z,20.20
2023-04-22T20:08:14.486Z,20.03
2023-04-22T20:10:45.875Z,19.91
2023-04-22T20:13:13.511Z,19.36
2023-04-22T20:15:41.309Z,20.13
2023-04-22T20:18:09.370Z,20.20
2023-04-22T20:20:37.763Z,19.97
2023-04-22T20:23:10.324Z,19.45
2023-04-22T20:25:40.594Z,19.57
2023-04-22T20:28:10.698Z,20.00
2023-04-22T20:30:39.204Z,19.91
2023-04-22T20:33:07.285Z,20.11
2023-04-22T20:35:35.918Z,19.99
2023-04-22T20:38:04.495Z,19.23
2023-04-22T20:40:34.598Z,19.83
2023-04-22T20:43:03.311Z,19.83
2023-04-22T20:45:32.150Z,19.81
2023-04-22T20:47:59.675Z,19.99
2023-04-22T20:50:32.966Z,19.93
2023-04-22T20:53:01.001Z,19.90
2023-04-22T20:55:28.523Z,19.79
2023-04-22T20:57:56.049Z,19.90
2023-04-22T21:00:23.811Z,19.82
2023-04-22T21:02:53.697Z,19.43
2023-04-22T21:05:22.011Z,19.20
2023-04-22T21:07:51.976Z,19.51
2023-04-22T21:10:20.462Z,19.21
2023-04-22T21:12:48.465Z,19.69
2023-04-22T21:15:16.699Z,19.61
2023-04-22T21:17:51.672Z,19.45
2023-04-22T21:20:24.122Z,19.74
2023-04-22T21:22:52.872Z,19.46
2023-04-22T21:25:23.142Z,19.70
2023-04-22T21:27:51.024Z,18.85
2023-04-22T21:30:19.495Z,19.15
2023-04-22T21:32:47.007Z,19.43
2023-04-22T21:35:14.776Z,19.05
2023-04-22T21:37:43.686Z,19.10
2023-04-22T21:40:13.294Z,19.15
2023-04-22T21:42:41.637Z,19.41
2023-04-22T21:45:09.796Z,19.68
2023-04-22T21:47:37.250Z,19.31
2023-04-22T21:50:06.182Z,19.63
2023-04-22T21:52:33.673Z,19.61
2023-04-22T21:55:02.569Z,19.72
2023-04-22T21:57:30.145Z,19.49
2023-04-22T21:59:57.638Z,19.44
2023-04-22T22:02:26.628Z,19.31
2023-04-22T22:04:54.355Z,19.15
2023-04-22T22:07:22.033Z,19.34
2023-04-22T22:09:49.791Z,18.59
2023-04-22T22:12:18.681Z,18.91
2023-04-22T22:14:46.122Z,19.18
2023-04-22T22:17:13.644Z,19.39
2023-04-22T22:19:41.964Z,19.00
2023-04-22T22:22:09.446Z,18.98
2023-04-22T22:24:36.954Z,19.11
2023-04-22T22:27:05.392Z,19.37
2023-04-22T22:29:34.240Z,19.21
2023-04-22T22:32:01.865Z,19.17
2023-04-22T22:34:29.413Z,19.34
2023-04-22T22:36:56.853Z,19.19
2023-04-22T22:39:24.509Z,19.23
2023-04-22T22:41:51.914Z,19.36
2023-04-22T22:44:19.354Z,19.59
2023-04-22T22:46:48.129Z,19.50
2023-04-22T22:49:16.071Z,19.63
2023-04-22T22:51:43.742Z,18.79
2023-04-22T22:54:11.237Z,19.30
2023-04-22T22:56:39.093Z,19.36
2023-04-22T22:59:06.498Z,19.10
2023-04-22T23:01:34.163Z,19.38
2023-04-22T23:04:03.403Z,19.06
2023-04-22T23:06:31.940Z,18.97
2023-04-22T23:08:59.337Z,19.36
2023-04-22T23:11:26.770Z,19.16
2023-04-22T23:13:54.342Z,19.20
2023-04-22T23:16:22.199Z,18.85
2023-04-22T23:18:49.831Z,18.79
2023-04-22T23:21:20.426Z,19.11
2023-04-22T23:23:48.160Z,18.85
2023-04-22T23:26:16.124Z,18.50
2023-04-22T23:28:44.134Z,18.82
2023-04-22T23:31:11.860Z,18.55
2023-04-22T23:33:42.107Z,18.28
2023-04-22T23:36:10.839Z,18.88
2023-04-22T23:38:39.648Z,18.96
2023-04-22T23:41:07.530Z,18.94
2023-04-22T23:43:34.966Z,18.96
2023-04-22T23:46:02.423Z,18.98
2023-04-22T23:48:29.866Z,18.90
2023-04-22T23:50:57.294Z,18.87
2023-04-22T23:53:24.703Z,18.91
2023-04-22T23:55:54.158Z,18.98
2023-04-22T23:58:21.951Z,18.76
